createdAt,value
2022-08-17T00:00:43.125Z,6.90
2022-08-17T00:03:07.772Z,6.60
2022-08-17T00:05:37.759Z,6.38
2022-08-17T00:08:05.767Z,6.93
2022-08-17T00:10:35.523Z,6.65
2022-08-17T00:13:07.984Z,7.03
2022-08-17T00:15:35.836Z,6.82
2022-08-17T00:18:04.097Z,6.90
2022-08-17T00:20:52.235Z,6.55
2022-08-17T00:23:21.118Z,6.82
2022-08-17T00:25:48.960Z,6.70
2022-08-17T00:28:18.772Z,6.60
2022-08-17T00:30:53.085Z,6.50
2022-08-17T00:33:22.295Z,6.70
2022-08-17T00:35:50.563Z,7.18
2022-08-17T00:38:18.770Z,7.03
2022-08-17T00:40:47.885Z,7.35
2022-08-17T00:43:17.047Z,7.45
2022-08-17T00:45:47.591Z,7.20
2022-08-17T00:48:30.070Z,6.75
2022-08-17T00:51:03.901Z,7.03
2022-08-17T00:53:32.988Z,7.05
2022-08-17T00:56:03.099Z,7.57
2022-08-17T00:58:36.491Z,6.95
2022-08-17T01:01:06.814Z,6.90
2022-08-17T01:03:45.249Z,6.82
2022-08-17T01:06:13.033Z,6.82
2022-08-17T01:08:41.558Z,6.85
2022-08-17T01:11:10.023Z,6.95
2022-08-17T01:13:41.039Z,7.65
2022-08-17T01:16:15.961Z,6.80
2022-08-17T01:18:44.882Z,7.18
2022-08-17T01:21:17.259Z,6.78
2022-08-17T01:23:46.448Z,7.45
2022-08-17T01:26:14.438Z,7.72
2022-08-17T01:28:54.797Z,7.50
2022-08-17T01:31:23.803Z,7.35
2022-08-17T01:33:51.537Z,7.43
2022-08-17T01:36:19.188Z,7.63
2022-08-17T01:38:48.158Z,7.53
2022-08-17T01:41:16.883Z,7.47
2022-08-17T01:43:46.413Z,7.13
2022-08-17T01:46:16.102Z,8.18
2022-08-17T01:48:47.351Z,7.60
2022-08-17T01:51:16.004Z,7.50
2022-08-17T01:53:45.846Z,7.68
2022-08-17T01:56:16.283Z,7.80
2022-08-17T01:58:44.600Z,7.55
2022-08-17T02:01:15.038Z,7.45
2022-08-17T02:03:56.162Z,7.95
2022-08-17T02:06:29.147Z,7.30
2022-08-17T02:09:02.257Z,7.28
2022-08-17T02:11:33.829Z,7.53
2022-08-17T02:14:03.483Z,6.93
2022-08-17T02:16:37.549Z,7.43
2022-08-17T02:19:07.687Z,7.00
2022-08-17T02:21:36.433Z,7.47
2022-08-17T02:24:04.392Z,7.25
2022-08-17T02:26:33.439Z,7.40
2022-08-17T02:29:01.532Z,7.53
2022-08-17T02:31:30.067Z,7.20
2022-08-17T02:34:03.507Z,7.35
2022-08-17T02:36:33.356Z,7.20
2022-08-17T02:39:01.600Z,6.88
2022-08-17T02:41:29.351Z,7.38
2022-08-17T02:43:58.630Z,7.63
2022-08-17T02:46:26.278Z,7.20
2022-08-17T02:48:54.018Z,7.03
2022-08-17T02:51:21.606Z,7.63
2022-08-17T02:53:49.300Z,7.25
2022-08-17T02:56:17.183Z,7.10
2022-08-17T02:58:45.171Z,7.43
2022-08-17T03:01:14.538Z,7.40
2022-08-17T03:03:42.289Z,7.63
2022-08-17T03:06:10.524Z,7.35
2022-08-17T03:08:38.681Z,7.10
2022-08-17T03:11:06.650Z,8.07
2022-08-17T03:13:34.332Z,7.93
2022-08-17T03:16:02.011Z,7.72
2022-08-17T03:18:31.286Z,8.32
2022-08-17T03:21:00.410Z,7.85
2022-08-17T03:23:30.354Z,7.47
2022-08-17T03:25:58.813Z,8.02
2022-08-17T03:28:26.483Z,7.55
2022-08-17T03:30:54.599Z,7.85
2022-08-17T03:33:22.572Z,7.70
2022-08-17T03:35:51.880Z,8.25
2022-08-17T03:38:20.224Z,7.95
2022-08-17T03:40:56.648Z,7.90
2022-08-17T03:43:27.773Z,7.93
2022-08-17T03:46:34.521Z,8.32
2022-08-17T03:49:19.475Z,9.02
2022-08-17T03:52:06.307Z,7.30
2022-08-17T03:54:51.569Z,7.88
2022-08-17T03:57:19.826Z,8.02
2022-08-17T03:59:47.684Z,8.07
2022-08-17T04:02:18.665Z,8.27
2022-08-17T04:04:46.911Z,7.50
2022-08-17T04:07:15.967Z,9.02
2022-08-17T04:09:45.000Z,8.73
2022-08-17T04:12:15.228Z,7.65
2022-08-17T04:14:53.740Z,8.02
2022-08-17T04:17:23.332Z,8.38
2022-08-17T04:19:51.042Z,8.25
2022-08-17T04:22:32.205Z,8.25
2022-08-17T04:25:03.107Z,8.25
2022-08-17T04:27:30.760Z,8.90
2022-08-17T04:29:58.711Z,8.10
2022-08-17T04:33:00.560Z,8.63
2022-08-17T04:35:18.543Z,8.10
2022-08-17T04:37:47.801Z,8.60
2022-08-17T04:40:33.538Z,8.95
2022-08-17T04:43:02.578Z,9.02
2022-08-17T04:45:32.367Z,8.68
2022-08-17T04:48:00.751Z,9.18
2022-08-17T04:50:28.433Z,9.18
2022-08-17T04:52:57.811Z,10.02
2022-08-17T04:55:26.389Z,9.93
2022-08-17T04:57:54.061Z,9.13
2022-08-17T05:00:21.710Z,9.73
2022-08-17T05:02:50.979Z,9.20
2022-08-17T05:05:19.686Z,9.63
2022-08-17T05:07:48.774Z,8.82
2022-08-17T05:10:18.071Z,8.43
2022-08-17T05:12:45.672Z,9.68
2022-08-17T05:15:16.090Z,8.88
2022-08-17T05:17:46.147Z,7.65
2022-08-17T05:20:15.949Z,8.50
2022-08-17T05:22:51.280Z,7.78
2022-08-17T05:25:24.989Z,8.50
2022-08-17T05:27:53.663Z,7.93
2022-08-17T05:30:21.776Z,8.65
2022-08-17T05:32:53.665Z,7.97
2022-08-17T05:35:21.676Z,7.82
2022-08-17T05:37:49.461Z,8.23
2022-08-17T05:40:17.382Z,8.15
2022-08-17T05:42:47.129Z,7.82
2022-08-17T05:45:15.748Z,8.40
2022-08-17T05:47:44.099Z,8.55
2022-08-17T05:50:18.357Z,8.48
2022-08-17T05:52:54.805Z,7.75
2022-08-17T05:55:28.201Z,7.47
2022-08-17T05:58:02.801Z,7.20
2022-08-17T06:00:33.311Z,8.07
2022-08-17T06:03:19.208Z,7.70
2022-08-17T06:05:53.403Z,7.90
2022-08-17T06:08:24.651Z,8.10
2022-08-17T06:11:01.871Z,8.05
2022-08-17T06:13:42.222Z,8.10
2022-08-17T06:16:33.212Z,7.85
2022-08-17T06:19:01.219Z,8.00
2022-08-17T06:21:31.929Z,8.23
2022-08-17T06:24:03.814Z,8.25
2022-08-17T06:26:39.606Z,7.50
2022-08-17T06:29:18.567Z,7.38
2022-08-17T06:31:47.897Z,7.10
2022-08-17T06:34:15.677Z,7.20
2022-08-17T06:36:49.547Z,7.50
2022-08-17T06:39:27.376Z,7.00
2022-08-17T06:42:00.953Z,6.95
2022-08-17T06:44:49.647Z,6.63
2022-08-17T06:47:28.872Z,7.43
2022-08-17T06:50:02.786Z,7.47
2022-08-17T06:52:45.683Z,7.40
2022-08-17T06:55:18.884Z,7.15
2022-08-17T06:57:48.766Z,6.93
2022-08-17T07:00:19.879Z,6.82
2022-08-17T07:02:52.229Z,6.88
2022-08-17T07:05:22.100Z,6.90
2022-08-17T07:08:05.371Z,6.65
2022-08-17T07:10:36.384Z,6.88
2022-08-17T07:13:12.524Z,7.38
2022-08-17T07:15:43.595Z,6.70
2022-08-17T07:18:11.454Z,6.43
2022-08-17T07:20:43.007Z,6.28
2022-08-17T07:23:14.642Z,6.72
2022-08-17T07:25:42.360Z,6.80
2022-08-17T07:28:09.925Z,6.50
2022-08-17T07:30:47.664Z,6.13
2022-08-17T07:33:20.270Z,6.47
2022-08-17T07:35:49.860Z,6.22
2022-08-17T07:38:25.859Z,5.80
2022-08-17T07:41:02.998Z,5.50
2022-08-17T07:43:31.738Z,5.03
2022-08-17T07:46:22.943Z,5.20
2022-08-17T07:48:52.986Z,5.45
2022-08-17T07:51:28.024Z,5.63
2022-08-17T07:54:13.106Z,6.03
2022-08-17T07:56:43.747Z,5.65
2022-08-17T07:59:16.731Z,5.18
2022-08-17T08:01:49.174Z,4.97
2022-08-17T08:07:28.047Z,4.57
2022-08-17T08:10:22.595Z,5.40
2022-08-17T08:13:08.939Z,5.07
2022-08-17T08:15:45.170Z,4.78
2022-08-17T08:18:53.754Z,4.82
2022-08-17T08:21:24.357Z,4.95
2022-08-17T08:23:57.302Z,4.78
2022-08-17T08:26:29.112Z,5.10
2022-08-17T08:29:03.592Z,5.00
2022-08-17T08:31:42.097Z,4.63
2022-08-17T08:34:55.877Z,4.90
2022-08-17T08:37:16.409Z,4.90
2022-08-17T08:39:52.587Z,4.90
2022-08-17T08:42:25.357Z,4.88
2022-08-17T08:45:04.495Z,5.30
2022-08-17T08:47:45.101Z,5.05
2022-08-17T08:50:37.260Z,5.15
2022-08-17T08:53:14.278Z,4.80
2022-08-17T08:55:49.438Z,5.28
2022-08-17T08:58:31.732Z,4.78
2022-08-17T09:01:16.942Z,4.57
2022-08-17T09:03:53.854Z,5.13
2022-08-17T09:06:37.539Z,4.55
2022-08-17T09:09:15.409Z,4.95
2022-08-17T09:12:02.412Z,4.75
2022-08-17T09:14:43.222Z,4.72
2022-08-17T09:17:16.497Z,4.60
2022-08-17T09:19:49.419Z,5.32
2022-08-17T09:22:23.255Z,4.72
2022-08-17T09:24:57.247Z,4.85
2022-08-17T09:27:28.562Z,4.90
2022-08-17T09:29:59.986Z,5.22
2022-08-17T09:32:29.842Z,5.65
2022-08-17T09:35:01.494Z,5.60
2022-08-17T09:37:31.655Z,5.43
2022-08-17T09:40:10.534Z,5.32
2022-08-17T09:42:41.280Z,5.60
2022-08-17T09:45:18.509Z,5.28
2022-08-17T09:47:48.732Z,5.30
2022-08-17T09:50:55.164Z,5.13
2022-08-17T09:53:08.245Z,4.85
2022-08-17T09:55:57.915Z,5.72
2022-08-17T09:58:29.596Z,5.60
2022-08-17T10:01:01.099Z,5.70
2022-08-17T10:03:34.336Z,5.50
2022-08-17T10:06:06.540Z,5.43
2022-08-17T10:08:37.938Z,6.03
2022-08-17T10:11:12.385Z,5.22
2022-08-17T10:13:52.800Z,5.28
2022-08-17T10:16:24.014Z,5.28
2022-08-17T10:19:02.344Z,5.72
2022-08-17T10:21:48.807Z,5.78
2022-08-17T10:24:36.222Z,4.85
2022-08-17T10:27:08.889Z,5.20
2022-08-17T10:29:48.862Z,5.70
2022-08-17T10:32:22.266Z,5.40
2022-08-17T10:35:14.537Z,5.60
2022-08-17T10:37:49.344Z,5.40
2022-08-17T10:40:24.579Z,5.35
2022-08-17T10:42:57.948Z,5.00
2022-08-17T10:45:29.552Z,5.15
2022-08-17T10:48:05.278Z,5.32
2022-08-17T10:50:49.700Z,5.90
2022-08-17T10:53:32.179Z,5.57
2022-08-17T10:56:16.320Z,5.15
2022-08-17T10:58:49.410Z,4.95
2022-08-17T11:01:17.704Z,4.80
2022-08-17T11:03:54.705Z,5.30
2022-08-17T11:06:26.241Z,4.90
2022-08-17T11:09:05.191Z,5.57
2022-08-17T11:11:43.042Z,5.35
2022-08-17T11:14:18.063Z,5.32
2022-08-17T11:16:51.366Z,5.07
2022-08-17T11:19:40.979Z,5.63
2022-08-17T11:22:33.340Z,5.43
2022-08-17T11:25:12.534Z,4.88
2022-08-17T11:27:40.243Z,4.30
2022-08-17T11:30:11.865Z,3.97
2022-08-17T11:32:47.383Z,4.03
2022-08-17T11:35:29.756Z,3.95
2022-08-17T11:38:03.507Z,4.07
2022-08-17T11:40:38.508Z,4.07
2022-08-17T11:43:17.400Z,4.03
2022-08-17T11:45:56.395Z,3.70
2022-08-17T11:48:58.959Z,4.10
2022-08-17T11:51:46.523Z,4.20
2022-08-17T11:54:37.976Z,3.78
2022-08-17T11:57:40.417Z,3.80
2022-08-17T12:00:10.683Z,4.18
2022-08-17T12:02:48.055Z,3.72
2022-08-17T12:05:32.327Z,3.92
2022-08-17T12:08:14.711Z,3.50
2022-08-17T12:10:50.604Z,3.92
2022-08-17T12:13:19.252Z,3.97
2022-08-17T12:15:49.679Z,3.30
2022-08-17T12:18:23.301Z,3.42
2022-08-17T12:21:00.449Z,3.55
2022-08-17T12:23:33.940Z,3.28
2022-08-17T12:26:03.092Z,3.10
2022-08-17T12:28:32.469Z,3.08
2022-08-17T12:31:01.456Z,3.10
2022-08-17T12:33:30.717Z,3.10
2022-08-17T12:36:00.205Z,3.40
2022-08-17T12:38:32.939Z,3.30
2022-08-17T12:41:21.782Z,3.70
2022-08-17T12:43:56.608Z,3.33
2022-08-17T12:46:24.183Z,3.65
2022-08-17T12:48:59.979Z,3.78
2022-08-17T12:51:29.204Z,7.80
2022-08-17T12:53:57.294Z,3.80
2022-08-17T12:56:25.170Z,3.95
2022-08-17T12:58:56.637Z,3.85
2022-08-17T13:01:25.257Z,3.90
2022-08-17T13:03:59.770Z,3.42
2022-08-17T13:06:30.397Z,34.30
2022-08-17T13:08:58.300Z,12.30
2022-08-17T13:11:26.095Z,4.55
2022-08-17T13:13:56.009Z,3.67
2022-08-17T13:16:24.632Z,4.10
2022-08-17T13:18:55.451Z,3.50
2022-08-17T13:21:27.648Z,3.90
2022-08-17T13:23:59.813Z,4.43
2022-08-17T13:26:29.558Z,3.60
2022-08-17T13:28:57.240Z,3.90
2022-08-17T13:31:33.352Z,4.07
2022-08-17T13:34:20.583Z,3.90
2022-08-17T13:36:52.671Z,3.80
2022-08-17T13:39:21.586Z,3.78
2022-08-17T13:41:49.781Z,3.85
2022-08-17T13:44:34.978Z,3.65
2022-08-17T13:47:03.772Z,3.40
2022-08-17T13:49:41.915Z,3.85
2022-08-17T13:52:33.610Z,3.40
2022-08-17T13:55:02.356Z,3.70
2022-08-17T13:57:30.032Z,3.50
2022-08-17T14:00:07.157Z,3.75
2022-08-17T14:02:35.057Z,3.72
2022-08-17T14:05:06.430Z,4.45
2022-08-17T14:07:36.338Z,3.65
2022-08-17T14:10:06.423Z,3.60
2022-08-17T14:12:34.860Z,3.35
2022-08-17T14:15:02.845Z,3.17
2022-08-17T14:17:36.329Z,3.35
2022-08-17T14:20:09.365Z,3.42
2022-08-17T14:22:38.908Z,3.08
2022-08-17T14:25:08.537Z,3.65
2022-08-17T14:27:43.280Z,3.45
2022-08-17T14:30:21.522Z,3.30
2022-08-17T14:32:51.758Z,3.30
2022-08-17T14:35:23.089Z,3.70
2022-08-17T14:37:50.832Z,3.25
2022-08-17T14:40:20.829Z,3.60
2022-08-17T14:42:48.725Z,3.75
2022-08-17T14:45:27.067Z,3.58
2022-08-17T14:48:00.037Z,3.72
2022-08-17T14:50:29.002Z,3.70
2022-08-17T14:52:58.176Z,3.40
2022-08-17T14:55:26.860Z,3.40
2022-08-17T14:57:54.467Z,3.15
2022-08-17T15:00:22.335Z,3.10
2022-08-17T15:02:50.897Z,3.20
2022-08-17T15:05:18.493Z,3.22
2022-08-17T15:07:47.614Z,3.28
2022-08-17T15:10:15.250Z,3.22
2022-08-17T15:12:43.300Z,3.30
2022-08-17T15:15:12.438Z,2.80
2022-08-17T15:17:44.412Z,3.20
2022-08-17T15:20:15.184Z,3.08
2022-08-17T15:22:43.343Z,3.20
2022-08-17T15:25:13.054Z,3.20
2022-08-17T15:27:40.680Z,2.92
2022-08-17T15:30:09.715Z,3.33
2022-08-17T15:32:39.061Z,2.85
2022-08-17T15:35:07.204Z,3.17
2022-08-17T15:37:36.222Z,3.00
2022-08-17T15:40:04.207Z,3.13
2022-08-17T15:42:34.477Z,3.10
2022-08-17T15:45:06.061Z,3.33
2022-08-17T15:47:33.629Z,3.22
2022-08-17T15:50:01.406Z,3.20
2022-08-17T15:52:30.730Z,3.83
2022-08-17T15:54:58.806Z,3.88
2022-08-17T15:57:26.698Z,3.88
2022-08-17T15:59:58.693Z,3.72
2022-08-17T16:03:45.049Z,3.47
2022-08-17T16:05:18.913Z,3.83
2022-08-17T16:07:47.601Z,3.63
2022-08-17T16:10:19.000Z,3.95
2022-08-17T16:12:47.867Z,4.13
2022-08-17T16:15:17.241Z,3.72
2022-08-17T16:17:44.850Z,3.53
2022-08-17T16:20:19.678Z,4.13
2022-08-17T16:22:48.317Z,3.90
2022-08-17T16:25:18.685Z,3.38
2022-08-17T16:27:46.582Z,3.50
2022-08-17T16:30:17.633Z,3.85
2022-08-17T16:32:47.517Z,4.05
2022-08-17T16:35:16.129Z,3.78
2022-08-17T16:37:45.512Z,3.20
2022-08-17T16:40:14.198Z,3.53
2022-08-17T16:42:43.152Z,3.80
2022-08-17T16:45:12.990Z,3.50
2022-08-17T16:47:41.846Z,3.53
2022-08-17T16:50:12.349Z,3.65
2022-08-17T16:52:40.518Z,3.95
2022-08-17T16:55:09.302Z,3.65
2022-08-17T16:57:49.985Z,3.90
2022-08-17T17:00:19.336Z,4.07
2022-08-17T17:02:48.119Z,3.85
2022-08-17T17:05:24.431Z,3.80
2022-08-17T17:07:56.245Z,3.88
2022-08-17T17:10:24.823Z,3.75
2022-08-17T17:13:01.965Z,3.83
2022-08-17T17:15:34.541Z,3.70
2022-08-17T17:18:07.220Z,3.85
2022-08-17T17:20:41.478Z,3.78
2022-08-17T17:23:11.255Z,4.18
2022-08-17T17:25:44.507Z,3.85
2022-08-17T17:28:18.291Z,3.97
2022-08-17T17:30:54.533Z,4.40
2022-08-17T17:33:24.024Z,4.05
2022-08-17T17:35:54.999Z,4.07
2022-08-17T17:38:25.040Z,4.50
2022-08-17T17:41:02.920Z,4.18
2022-08-17T17:43:39.735Z,4.70
2022-08-17T17:46:27.241Z,4.30
2022-08-17T17:48:56.799Z,4.25
2022-08-17T17:52:06.548Z,4.30
2022-08-17T17:54:21.440Z,4.63
2022-08-17T17:56:54.593Z,4.25
2022-08-17T17:59:26.855Z,4.30
2022-08-17T18:01:59.644Z,4.80
2022-08-17T18:04:29.651Z,4.45
2022-08-17T18:07:05.640Z,4.00
2022-08-17T18:09:49.882Z,4.80
2022-08-17T18:12:23.387Z,4.45
2022-08-17T18:14:58.281Z,4.28
2022-08-17T18:17:29.648Z,4.75
2022-08-17T18:19:57.273Z,4.13
2022-08-17T18:22:27.715Z,4.63
2022-08-17T18:24:57.310Z,4.57
2022-08-17T18:27:26.879Z,4.72
2022-08-17T18:29:55.077Z,4.65
2022-08-17T18:32:31.160Z,4.65
2022-08-17T18:35:00.134Z,5.15
2022-08-17T18:37:32.334Z,5.53
2022-08-17T18:40:00.175Z,4.70
2022-08-17T18:42:29.130Z,4.88
2022-08-17T18:44:57.035Z,4.32
2022-08-17T18:47:25.904Z,4.30
2022-08-17T18:49:57.391Z,4.43
2022-08-17T18:52:27.751Z,3.90
2022-08-17T18:55:09.635Z,4.07
2022-08-17T18:57:38.848Z,4.20
2022-08-17T19:00:12.286Z,4.47
2022-08-17T19:02:49.449Z,4.50
2022-08-17T19:05:27.116Z,4.60
2022-08-17T19:07:55.367Z,4.25
2022-08-17T19:10:25.988Z,4.20
2022-08-17T19:13:00.447Z,4.70
2022-08-17T19:15:32.335Z,4.28
2022-08-17T19:18:06.723Z,4.20
2022-08-17T19:20:36.383Z,4.25
2022-08-17T19:23:07.159Z,4.70
2022-08-17T19:25:39.193Z,4.03
2022-08-17T19:28:21.802Z,4.25
2022-08-17T19:30:51.073Z,4.30
2022-08-17T19:33:19.431Z,4.25
2022-08-17T19:35:52.576Z,4.53
2022-08-17T19:38:27.597Z,4.40
2022-08-17T19:41:01.848Z,4.50
2022-08-17T19:43:36.096Z,4.65
2022-08-17T19:46:06.164Z,4.38
2022-08-17T19:48:40.760Z,4.55
2022-08-17T19:51:11.500Z,4.97
2022-08-17T19:54:04.232Z,5.07
2022-08-17T19:56:35.962Z,5.40
2022-08-17T19:59:09.344Z,5.30
2022-08-17T20:01:42.382Z,5.50
2022-08-17T20:04:13.306Z,5.50
2022-08-17T20:06:44.085Z,4.80
2022-08-17T20:09:16.564Z,4.97
2022-08-17T20:11:47.917Z,5.20
2022-08-17T20:14:16.531Z,4.95
2022-08-17T20:16:44.212Z,4.72
2022-08-17T20:19:17.705Z,4.82
2022-08-17T20:21:46.894Z,4.55
2022-08-17T20:24:19.955Z,4.72
2022-08-17T20:26:58.646Z,4.90
2022-08-17T20:29:50.549Z,4.85
2022-08-17T20:32:23.731Z,4.82
2022-08-17T20:35:01.300Z,4.88
2022-08-17T20:37:33.482Z,5.22
2022-08-17T20:40:20.537Z,5.40
2022-08-17T20:42:48.270Z,4.72
2022-08-17T20:45:36.504Z,4.60
2022-08-17T20:48:36.334Z,4.47
2022-08-17T20:51:12.781Z,4.85
2022-08-17T20:53:59.044Z,4.97
2022-08-17T20:56:47.849Z,4.97
2022-08-17T20:59:31.578Z,5.00
2022-08-17T21:02:03.759Z,4.95
2022-08-17T21:04:53.657Z,5.03
2022-08-17T21:07:29.149Z,4.80
2022-08-17T21:10:10.298Z,4.72
2022-08-17T21:12:43.016Z,4.93
2022-08-17T21:15:19.486Z,4.78
2022-08-17T21:17:51.326Z,4.82
2022-08-17T21:20:28.185Z,4.40
2022-08-17T21:23:06.987Z,4.38
2022-08-17T21:25:45.139Z,4.60
2022-08-17T21:28:17.803Z,4.20
2022-08-17T21:30:51.551Z,4.38
2022-08-17T21:33:21.441Z,4.30
2022-08-17T21:35:51.750Z,4.95
2022-08-17T21:38:23.282Z,5.00
2022-08-17T21:40:53.674Z,5.32
2022-08-17T21:43:24.471Z,5.15
2022-08-17T21:45:56.715Z,5.38
2022-08-17T21:48:25.908Z,5.55
2022-08-17T21:51:08.279Z,5.50
2022-08-17T21:53:40.653Z,4.85
2022-08-17T21:56:09.201Z,4.85
2022-08-17T21:58:40.254Z,4.93
2022-08-17T22:01:12.365Z,5.40
2022-08-17T22:03:40.141Z,5.35
2022-08-17T22:06:22.036Z,5.30
2022-08-17T22:09:06.033Z,5.78
2022-08-17T22:11:47.420Z,5.93
2022-08-17T22:14:17.690Z,6.10
2022-08-17T22:16:45.428Z,5.70
2022-08-17T22:19:13.076Z,5.90
2022-08-17T22:21:40.746Z,5.40
2022-08-17T22:24:21.516Z,5.50
2022-08-17T22:27:00.619Z,5.93
2022-08-17T22:29:42.614Z,6.72
2022-08-17T22:32:10.417Z,6.25
2022-08-17T22:34:38.614Z,7.00
2022-08-17T22:37:27.466Z,6.32
2022-08-17T22:39:59.824Z,7.75
2022-08-17T22:42:28.573Z,7.25
2022-08-17T22:44:56.193Z,7.70
2022-08-17T22:47:31.916Z,7.90
2022-08-17T22:50:01.204Z,7.05
2022-08-17T22:52:33.447Z,6.70
2022-08-17T22:55:22.152Z,7.30
2022-08-17T22:58:07.670Z,6.72
2022-08-17T23:00:38.547Z,8.02
2022-08-17T23:03:09.108Z,8.20
2022-08-17T23:05:37.406Z,7.38
2022-08-17T23:08:05.675Z,7.90
2022-08-17T23:10:35.990Z,8.23
2022-08-17T23:13:03.692Z,9.73
2022-08-17T23:15:33.873Z,10.02
2022-08-17T23:18:04.899Z,9.65
2022-08-17T23:20:33.587Z,10.50
2022-08-17T23:23:01.260Z,11.45
2022-08-17T23:25:29.624Z,11.88
2022-08-17T23:28:01.558Z,11.32
2022-08-17T23:30:30.630Z,12.25
2022-08-17T23:32:59.495Z,12.25
2022-08-17T23:35:39.022Z,13.48
2022-08-17T23:38:07.621Z,13.20
2022-08-17T23:40:35.250Z,13.80
2022-08-17T23:43:11.414Z,12.70
2022-08-17T23:45:52.597Z,13.15
2022-08-17T23:48:32.695Z,12.52
2022-08-17T23:51:05.828Z,14.68
2022-08-17T23:53:34.851Z,13.90
2022-08-17T23:56:10.189Z,13.43
2022-08-17T23:58:40.013Z,13.70
